Red Wing, Minnesota
Current Conditions -  °F | °C
As of 2:11 AM on Sunday 26 Oct 2014 (Local Time) from KRGK Reporting Station
Clear Clear  
Wind Chill:   Ceiling: Unl
Heat Index:   Visibility: 10mi
Dew Point: -2°   Wind: 0mph
Humidity: 81%   Direction: NA
Pressure: 30.03"   Gusts: NA
Location:  44.57°N, 92.53°W
Report Text: KRGK 260711Z AUTO 00000KT 10SM CLR 01/M02 A3003 RMK AO2
Loading
Personal Weather Stations






























Interactive Weather Map
Tropical Storm Tracking
New forecast layout! Learn more

10-Day Weather Forecast

Advertisements
Track Severe Weather on mobile